Pagina principale
METAR-TAF:

METAR-TAF

Aeroporti :

Avord, Francia

latitudine: 47-03-12N, longitudine: 002-37-57E, altezza: 177 m

Osservazione

Il bollettino è stato emesso 26 minuti fa, alle 05:00 UTC
Vento 18 kt da nord-est
Temperature 3°C
Umidità 65%
Pressione 1022 hPa
Visibilità 10 km o più
nessuna nube inferiore a 1500 m e nessun cumulonembo

METAR: LFOA 300500Z AUTO 04018KT CAVOK 03/M03 Q1022 TEMPO 04020G30KT

Ora: 07:26 (05:26 UTC)

Previsione

Il bollettino è stato emesso 1 ora e 26 minuti fa, alle 04:00 UTC
Previsione valida dal 30 alle 04 UTC al 31 alle 03 UTC
Vento 20 kt da nord-est
Visibilità 10 km o più
Nuvoloso ad un'altezza di 4000 ft
Temporaneamente
dal 30 alle 04 UTC al 30 alle 18 UTC
Vento 20 kt da nord-est con raffiche fino a 30 kt
Evoluzione graduale
dal 30 alle 20 UTC al 30 alle 22 UTC
Vento 10 kt da nord-est

TAF: LFOA 300400Z 3004/3103 04020KT 9999 BKN040 TEMPO 3004/3018 04020G30KT BECMG 3020/3022 04010KT

Osservazioni e previsioni meteorologiche di più di 4000 aeroporti (messaggi METAR e TAF).

Le stazioni disponibili sono rappresentate dai dischi gialli e rossi sulla carta.

Puntare il mouse per vedere il nome della stazione.

Clicca sopra per visualizzare le osservazioni e previsioni meteorologiche.

Per cambiare la mappa : fare clic sui pulsanti verdi con una croce nera per ingrandire, il pulsante verde con un trattino per diminuire, o sulla freccia verde per le mappe adiacenti.


METAR-TAF: